Date,TemperatureHighF,TemperatureAvgF,TemperatureLowF,DewpointHighF,DewpointAvgF,DewpointLowF,HumidityHigh,HumidityAvg,HumidityLow,PressureMaxIn,PressureMinIn,WindSpeedMaxMPH,WindSpeedAvgMPH,GustSpeedMaxMPH,PrecipitationSumIn
2013-1-1,37.9,31.9,17.0,26.4,18.0,4.7,70,57,42,30.00,29.82,5,1,16,0.04
2013-1-2,28.5,19.1,6.5,15.0,8.9,0.8,87,65,49,30.14,29.98,2,0,9,0.00
2013-1-3,21.0,14.2,0.9,11.3,2.8,-7.9,77,61,46,30.23,30.04,1,0,9,0.00
2013-1-4,39.1,30.1,17.5,23.7,19.3,11.3,80,65,49,30.04,29.89,2,0,10,0.09
2013-1-5,41.5,31.5,22.2,24.4,19.7,16.2,85,63,43,30.26,29.95,6,1,12,0.11
2013-1-6,43.8,32.4,23.3,27.7,24.7,19.1,90,74,50,30.21,29.95,1,0,4,0.09
2013-1-7,39.2,31.3,19.9,29.5,22.5,15.8,87,71,49,30.38,30.02,5,1,11,0.01
2013-1-8,47.6,31.2,18.1,27.6,22.6,14.8,92,73,45,30.40,30.31,2,0,5,0.01
2013-1-9,41.8,31.8,20.2,32.7,26.3,17.5,94,81,61,30.38,30.09,3,0,6,0.00
2013-1-10,45.7,36.8,27.3,23.1,21.5,19.3,78,56,36,30.55,30.39,6,1,15,0.00
2013-1-11,38.2,32.0,24.5,34.7,27.1,20.7,95,83,58,30.55,30.13,1,0,3,0.26
2013-1-12,44.2,38.9,35.0,43.4,37.8,34.0,97,96,94,30.16,30.09,0,0,2,0.03
2013-1-13,44.8,41.7,38.2,44.5,41.2,37.3,99,98,96,30.14,29.98,1,0,3,0.00
2013-1-14,49.6,43.4,35.2,49.1,38.4,23.5,100,84,61,30.31,29.84,6,1,15,0.06
2013-1-15,36.9,33.9,30.1,26.0,22.6,20.8,73,63,54,30.36,30.23,3,1,15,0.01
2013-1-16,32.5,30.2,28.4,30.0,27.3,20.5,94,89,61,30.23,29.83,2,0,15,0.00
2013-1-17,41.9,33.9,25.7,34.5,25.2,8.7,96,71,48,30.12,29.93,3,1,15,0.29
2013-1-18,28.2,22.3,18.0,9.5,5.0,-1.0,63,48,31,30.45,30.05,6,2,13,0.00
2013-1-19,45.8,34.7,23.2,26.8,19.4,8.3,68,54,39,30.36,29.85,3,1,10,0.04
2013-1-20,50.5,39.0,26.0,28.3,20.5,4.8,70,49,26,30.03,29.63,5,2,13,0.00
2013-1-21,28.7,24.3,16.9,19.1,10.1,3.3,84,56,39,30.08,29.80,3,0,6,0.00
2013-1-22,21.1,16.7,9.5,14.6,-1.8,-10.3,86,46,27,30.17,29.80,5,1,11,0.00
2013-1-23,18.0,11.0,6.0,-3.7,-6.3,-11.1,61,46,27,30.23,30.14,4,1,10,0.00
2013-1-24,20.6,13.4,0.3,0.6,-4.2,-8.5,77,47,29,30.37,30.21,7,2,14,0.00
2013-1-25,21.8,14.1,4.3,12.6,2.1,-3.1,81,60,35,30.41,30.06,1,0,4,0.00
2013-1-26,24.7,15.9,5.6,10.8,4.3,-0.4,84,62,38,30.36,30.05,6,1,14,0.00
2013-1-27,32.8,17.6,4.7,12.9,3.7,-1.4,86,58,27,30.52,30.34,2,0,5,0.00
2013-1-28,32.1,25.5,14.9,30.6,20.3,4.9,94,81,60,30.49,29.98,2,0,7,0.00
2013-1-29,48.0,37.5,32.1,40.6,34.4,30.6,97,89,67,30.14,29.98,3,0,5,0.17
2013-1-30,57.8,48.0,37.9,54.1,46.4,36.6,98,94,87,30.08,29.43,6,2,12,0.02
2013-1-31,56.0,38.8,27.2,53.3,23.1,8.6,91,54,34,29.71,28.98,6,2,17,0.67
2013-2-1,29.8,25.5,20.2,12.3,7.3,0.5,60,46,30,30.18,29.71,6,1,15,0.00
2013-2-2,29.5,21.7,16.1,16.5,9.1,3.0,84,60,34,30.26,30.06,6,0,15,0.00
2013-2-3,30.1,20.8,11.2,18.9,13.2,7.3,89,73,48,30.06,29.78,1,0,15,0.03
2013-2-4,30.6,24.1,19.2,18.4,9.3,2.3,85,55,32,29.96,29.78,3,1,15,0.00
2013-2-5,30.0,25.1,20.3,23.5,18.0,10.6,89,75,60,30.00,29.90,2,0,15,0.01
2013-2-6,38.6,29.3,21.9,27.7,17.2,-2.6,93,65,31,30.35,29.91,5,0,15,0.03
2013-2-7,32.8,23.7,14.0,10.5,4.5,-3.0,74,45,28,30.52,30.34,3,0,15,0.00
2013-2-8,31.8,28.9,24.2,28.3,25.2,20.9,93,86,72,30.19,29.71,6,2,13,0.00
2013-2-9,26.9,22.7,14.4,23.0,13.4,1.7,93,70,35,30.35,29.77,11,4,21,0.00
2013-2-10,35.3,16.2,-2.8,11.1,2.0,-9.0,81,57,27,30.50,30.31,2,0,8,0.14
2013-2-11,40.5,33.6,19.7,39.2,30.5,11.2,96,88,66,30.32,29.67,1,0,8,0.14
2013-2-12,43.8,37.2,33.4,35.0,27.6,22.5,96,70,47,29.95,29.68,4,0,9,0.03
2013-2-13,44.9,35.3,22.9,27.3,21.4,16.9,82,58,37,29.93,29.70,2,0,9,0.00
2013-2-14,45.4,35.3,20.6,31.5,23.2,17.6,94,64,40,29.98,29.87,2,0,7,0.02
2013-2-15,53.3,39.6,27.0,30.4,26.2,21.3,85,61,36,29.99,29.87,2,0,7,0.01
2013-2-16,36.5,30.9,26.6,29.7,20.1,8.1,91,66,45,29.98,29.76,8,2,15,0.02
2013-2-17,29.4,22.7,14.8,8.1,1.0,-4.0,51,39,25,29.94,29.65,10,5,21,0.00
2013-2-18,34.3,23.2,11.6,11.2,3.2,-1.1,58,43,25,30.19,29.94,3,1,10,0.00
2013-2-19,42.8,34.0,24.8,35.8,23.9,9.4,94,68,47,30.18,29.65,6,1,13,0.14
2013-2-20,34.6,29.2,23.2,32.9,14.0,6.6,94,54,38,29.92,29.65,5,2,12,0.00
2013-2-21,32.5,26.4,20.6,12.4,10.8,8.6,68,52,40,30.34,29.94,7,2,17,0.00
2013-2-22,37.9,29.9,20.8,24.9,18.6,11.9,74,63,47,30.43,30.27,4,1,10,0.00
2013-2-23,39.2,35.5,32.5,36.2,31.6,24.9,93,85,72,30.27,29.84,2,0,7,0.06
2013-2-24,41.6,35.0,28.8,36.8,30.8,22.5,97,85,58,29.96,29.74,4,1,11,0.03
2013-2-25,42.8,33.5,21.3,29.5,23.4,17.6,91,68,49,30.24,29.96,4,0,7,0.00
2013-2-26,44.2,35.5,24.4,30.5,24.7,21.1,90,66,45,30.31,29.97,3,1,9,0.04
2013-2-27,44.5,39.6,33.5,40.8,36.8,28.6,94,90,82,29.97,29.49,5,1,16,0.72
2013-2-28,50.1,39.9,35.3,40.7,35.3,32.2,97,85,53,29.61,29.53,2,0,5,0.16
2013-3-1,43.8,36.0,30.4,35.7,29.0,22.9,95,77,55,29.77,29.59,4,1,7,0.00
2013-3-2,37.2,33.3,27.9,24.1,22.8,21.8,80,65,55,29.76,29.69,5,2,11,0.00
2013-3-3,35.6,29.3,26.1,24.5,19.7,15.2,82,68,49,29.75,29.68,6,2,13,0.00
2013-3-4,40.2,32.0,26.6,20.8,17.9,14.7,69,56,43,29.90,29.73,9,2,23,0.00
2013-3-5,43.6,34.8,25.1,25.0,22.6,18.2,80,61,46,30.03,29.89,7,2,12,0.00
2013-3-6,43.5,37.8,33.2,34.2,28.2,24.5,79,68,55,30.03,29.93,8,3,18,0.00
2013-3-7,36.2,32.8,30.1,30.7,28.9,25.3,95,86,71,30.10,30.04,9,3,18,0.04
2013-3-8,39.2,33.0,28.8,30.9,28.0,23.2,95,83,57,30.23,30.01,11,4,20,0.17
2013-3-9,50.2,37.7,28.5,23.1,20.6,15.6,73,53,26,30.32,30.22,9,3,19,0.02
2013-3-10,54.7,38.7,22.7,32.8,26.3,18.8,91,64,35,30.38,30.25,5,1,13,0.00
2013-3-11,53.8,43.8,34.0,44.6,36.9,30.1,91,78,55,30.30,30.06,7,2,15,0.00
2013-3-12,54.1,50.5,39.9,53.0,47.6,35.2,96,90,80,30.06,29.64,6,2,16,0.60
2013-3-13,51.0,39.6,30.0,35.2,27.9,20.0,93,66,33,29.87,29.76,3,0,13,0.00
2013-3-14,35.2,30.8,25.4,27.4,11.8,3.1,79,46,28,29.92,29.83,7,2,16,0.00
2013-3-15,41.6,35.2,22.4,30.1,21.1,9.8,77,57,38,29.93,29.70,2,0,12,0.00
2013-3-16,37.2,32.2,26.9,25.9,20.3,12.5,85,62,38,29.91,29.75,3,0,6,0.00
2013-3-17,37.8,30.3,21.1,26.0,12.3,3.8,87,51,25,30.32,29.91,6,1,13,0.00
2013-3-18,35.9,27.3,16.1,25.9,10.9,3.1,91,53,28,30.43,30.06,3,1,10,0.00
2013-3-19,37.2,32.9,28.2,34.1,29.9,24.8,94,89,78,30.06,29.69,2,0,9,0.35
2013-3-20,42.3,33.5,24.7,23.3,17.4,12.5,75,53,31,29.84,29.77,4,1,13,0.07
2013-3-21,38.0,32.4,24.7,20.7,13.0,7.3,84,46,29,29.79,29.62,4,1,11,0.00
2013-3-22,39.9,31.2,20.2,22.3,17.4,10.9,79,57,42,29.84,29.70,3,1,7,0.00
2013-3-23,45.2,36.4,30.4,22.5,18.6,13.6,67,50,30,29.90,29.78,5,2,17,0.00
2013-3-24,43.5,34.1,22.7,24.4,19.4,14.7,83,56,39,29.93,29.73,6,1,12,0.00
2013-3-25,46.4,38.5,30.9,26.6,22.7,20.7,70,54,37,29.73,29.46,6,2,14,0.00
2013-3-26,47.0,38.4,28.5,29.5,25.2,20.3,81,60,40,29.85,29.58,7,1,13,0.00
2013-3-27,51.7,37.5,22.7,29.9,22.0,17.6,90,58,28,29.95,29.84,7,1,13,0.00
2013-3-28,46.8,38.8,30.7,33.2,28.6,21.1,84,67,52,30.10,29.94,6,1,12,0.00
2013-3-29,52.3,40.9,26.4,34.4,26.4,22.2,92,59,35,30.15,30.04,5,1,10,0.00
2013-3-30,57.3,42.4,27.2,33.5,23.1,16.0,92,52,21,30.16,30.05,4,1,12,0.00
2013-3-31,56.5,41.7,25.6,40.8,27.3,19.2,90,60,27,30.13,29.68,7,2,15,0.18
2013-4-1,61.0,44.6,33.2,46.3,33.0,9.4,96,68,31,29.88,29.60,6,1,16,0.01
2013-4-2,42.1,34.2,27.5,16.6,11.3,6.3,62,40,25,30.05,29.88,7,2,13,0.00
2013-4-3,45.7,35.6,28.1,16.4,11.9,6.2,56,39,23,30.26,30.04,6,2,13,0.00
2013-4-4,55.9,43.8,21.9,27.7,19.3,12.6,75,40,19,30.37,30.04,6,1,12,0.00
2013-4-5,60.5,46.5,36.0,28.4,20.9,14.3,65,39,18,30.04,29.70,7,2,14,0.00
2013-4-6,49.6,39.3,30.7,20.2,9.8,1.3,58,32,15,30.28,29.98,7,2,16,0.00
2013-4-7,57.5,46.2,35.9,41.5,30.0,17.0,80,55,23,30.27,29.95,9,3,17,0.00
2013-4-8,68.6,54.5,39.8,42.7,38.7,34.4,92,60,30,30.08,29.95,4,1,10,0.00
2013-4-9,75.8,63.8,51.3,51.0,42.9,36.5,84,51,26,29.96,29.87,5,1,11,0.00
2013-4-10,64.5,55.0,48.3,53.9,49.2,41.2,96,82,61,29.96,29.78,10,1,16,0.32
2013-4-11,55.3,47.4,38.8,54.2,37.8,25.9,96,71,48,30.08,29.79,6,3,11,0.00
2013-4-12,41.9,40.2,38.2,37.3,35.7,32.0,91,84,68,29.97,29.74,3,1,10,0.35
2013-4-13,56.3,45.1,36.5,40.9,35.2,30.9,95,71,41,29.93,29.77,2,0,7,0.02
2013-4-14,53.6,44.7,36.6,37.4,28.6,22.8,85,55,32,30.22,29.92,6,1,13,0.00
2013-4-15,61.6,46.7,31.8,33.3,29.2,25.1,84,54,31,30.37,30.22,4,1,13,0.00
2013-4-16,64.7,54.2,42.6,52.0,43.6,29.1,83,68,52,30.35,30.07,8,2,14,0.01
2013-4-17,64.5,55.7,47.1,53.9,38.0,29.3,92,56,27,30.28,30.09,8,2,15,0.04
2013-4-18,60.7,54.1,41.9,48.4,39.1,31.9,88,60,36,30.34,30.09,7,2,17,0.02
2013-4-19,72.8,63.1,52.5,61.2,57.3,48.4,95,82,64,30.09,29.58,8,3,14,0.39
2013-4-20,60.1,49.8,40.6,55.5,34.0,18.6,95,60,27,30.31,29.65,5,1,11,0.31
2013-4-21,49.9,40.9,31.0,24.7,18.8,14.3,64,42,27,30.62,30.30,8,2,14,0.00
2013-4-22,58.1,44.6,32.7,33.6,26.9,19.3,84,54,25,30.68,30.49,5,1,13,0.00
2013-4-23,52.2,41.8,31.6,39.6,33.8,26.0,83,74,61,30.51,30.12,3,1,13,0.00
2013-4-24,73.9,52.4,30.9,48.9,40.6,28.0,96,68,37,30.13,29.76,6,1,13,0.00
2013-4-25,61.6,54.0,41.1,31.0,25.9,19.8,62,36,21,30.25,30.09,4,1,13,0.00
2013-4-26,62.9,48.8,32.4,38.0,29.8,25.8,87,52,27,30.41,30.24,5,2,15,0.00
2013-4-27,67.1,51.6,30.7,34.1,26.9,15.7,87,43,16,30.44,30.25,4,1,11,0.00
2013-4-28,73.2,56.7,39.1,41.2,32.9,25.2,80,44,25,30.29,30.16,5,1,14,0.00
2013-4-29,56.9,54.2,51.1,46.0,41.5,27.8,76,63,38,30.22,30.17,3,0,7,0.00
2013-4-30,71.1,58.3,48.8,43.8,35.2,24.0,79,47,19,30.32,30.20,4,0,8,0.00
2013-5-1,73.3,56.5,36.0,41.6,32.3,22.0,83,45,18,30.46,30.32,3,1,14,0.00
2013-5-2,77.9,60.3,38.8,48.9,40.3,35.3,96,55,25,30.45,30.26,2,0,5,0.00
2013-5-3,69.8,61.2,47.9,40.0,34.0,28.5,67,38,22,30.45,30.30,3,1,12,0.00
2013-5-4,76.0,57.0,38.2,49.7,40.6,34.6,96,60,24,30.36,30.16,4,0,9,0.00
2013-5-5,71.8,53.5,37.0,41.7,37.3,30.0,94,60,22,30.30,30.15,3,0,7,0.00
2013-5-6,74.6,55.6,36.3,51.3,43.5,33.6,96,67,31,30.27,30.09,2,0,7,0.00
2013-5-7,79.4,62.2,43.5,57.3,49.0,41.3,97,67,29,30.15,30.05,3,0,6,0.00
2013-5-8,68.3,61.5,56.0,63.1,57.7,53.3,94,87,76,30.11,29.96,3,0,7,0.43
2013-5-9,66.8,59.5,52.3,58.8,55.5,51.0,97,87,64,29.95,29.86,1,0,2,0.65
2013-5-10,78.8,64.2,47.3,60.8,53.1,45.9,98,71,39,29.98,29.85,1,0,4,0.00
2013-5-11,69.1,63.9,60.2,64.2,60.4,54.4,96,89,72,29.86,29.66,2,0,7,0.52
2013-5-12,65.6,57.5,44.3,60.3,43.9,24.0,96,66,25,29.88,29.63,3,0,11,0.01
2013-5-13,55.0,45.7,35.2,34.7,31.0,26.4,81,58,36,30.09,29.88,3,0,9,0.00
2013-5-14,59.0,45.5,30.0,39.9,29.0,20.7,95,59,23,30.12,29.99,2,0,7,0.00
2013-5-15,66.6,51.2,32.7,52.9,42.5,28.8,95,73,50,30.05,29.63,4,0,9,0.05
2013-5-16,83.6,65.3,46.0,58.5,45.3,36.5,97,59,20,29.78,29.68,2,0,7,0.00
2013-5-17,69.6,60.2,48.0,45.4,40.7,36.5,81,51,31,30.19,29.98,5,2,12,0.00
2013-5-18,72.3,55.2,40.2,51.8,45.4,37.9,96,72,40,30.29,30.19,2,0,5,0.00
2013-5-19,58.0,56.0,51.7,56.4,53.8,48.9,95,92,87,30.31,30.16,1,0,3,0.11
2013-5-20,81.6,67.3,56.3,65.6,60.2,54.6,97,80,54,30.16,29.91,1,0,5,0.00
2013-5-21,90.1,75.2,59.3,70.8,65.3,57.9,97,74,46,29.95,29.76,1,0,4,0.00
2013-5-22,83.0,72.0,62.9,69.4,64.7,58.3,92,79,61,29.89,29.78,3,0,7,0.00
2013-5-23,75.6,68.5,65.5,69.9,66.2,63.0,97,93,79,29.85,29.74,1,0,4,0.95
2013-5-24,63.7,52.1,43.1,63.1,50.5,40.3,98,94,89,29.96,29.68,7,2,13,0.48
2013-5-25,47.9,45.5,43.3,46.0,41.2,37.3,94,85,72,29.95,29.88,6,2,14,0.30
2013-5-26,62.1,52.4,42.8,40.7,37.3,31.9,80,58,35,30.16,29.88,10,3,24,0.00
2013-5-27,76.0,57.3,38.8,47.0,39.2,34.0,92,57,23,30.22,30.08,2,0,4,0.00
2013-5-28,71.1,55.6,42.5,55.9,48.9,40.1,96,81,39,30.20,30.11,0,0,1,0.13
2013-5-29,81.1,67.6,56.7,69.8,62.6,55.6,98,85,67,30.12,29.95,4,0,7,0.04
2013-5-30,92.3,77.0,61.5,71.5,65.7,60.1,97,71,43,30.09,30.01,1,0,5,0.00
2013-5-31,93.6,82.7,62.6,70.8,65.5,59.4,97,59,33,30.10,29.94,1,0,4,0.00
2013-6-1,92.5,77.0,60.9,71.5,65.5,58.1,96,70,41,29.97,29.85,1,0,4,0.00
2013-6-2,87.8,78.4,69.9,72.4,67.4,65.4,89,70,52,29.86,29.70,1,0,4,0.00
2013-6-3,77.0,70.2,58.0,67.9,61.9,46.8,97,76,51,29.90,29.75,3,0,6,1.30
2013-6-4,75.8,60.7,44.2,48.4,43.7,36.7,95,59,26,30.11,29.89,4,0,10,0.00
2013-6-5,76.7,61.1,43.1,51.2,45.3,38.7,96,61,27,30.21,30.08,2,0,6,0.00
2013-6-6,70.8,60.0,48.3,56.3,50.6,45.2,93,73,49,30.14,30.01,1,0,10,0.11
2013-6-7,60.7,58.6,55.4,59.3,57.1,53.4,96,95,93,29.93,29.69,2,0,9,1.39
2013-6-8,77.6,64.3,54.7,65.8,58.0,53.9,97,81,59,30.03,29.64,4,1,13,0.30
2013-6-9,82.0,68.0,53.3,62.1,56.9,51.6,97,71,40,30.15,30.03,2,0,9,0.00
2013-6-10,71.6,61.9,56.7,65.0,59.4,55.0,96,92,73,30.15,29.82,3,0,9,0.91
2013-6-11,77.9,66.9,60.1,69.5,62.0,54.5,98,85,64,29.82,29.57,4,0,9,0.11
2013-6-12,74.4,66.3,58.1,55.4,52.8,49.6,82,63,42,29.83,29.65,6,1,21,0.00
2013-6-13,58.4,56.7,52.9,57.6,55.3,51.8,100,95,89,29.77,29.56,2,1,8,1.59
2013-6-14,75.1,60.3,51.3,60.2,53.8,50.0,97,81,45,29.86,29.59,5,1,11,0.37
2013-6-15,81.1,65.4,49.1,61.4,51.6,43.9,98,67,28,29.99,29.86,2,0,7,0.00
2013-6-16,79.8,65.2,49.6,62.7,56.0,47.4,97,74,46,29.96,29.72,1,0,5,0.00
2013-6-17,87.8,71.1,59.5,67.6,61.5,53.4,97,76,33,29.89,29.78,5,0,14,0.05
2013-6-18,81.1,65.4,57.5,67.6,60.2,54.4,97,84,58,29.90,29.82,5,1,11,0.02
2013-6-19,74.6,63.4,53.8,54.4,49.3,42.2,88,63,34,30.16,29.90,4,1,12,0.00
2013-6-20,81.6,65.3,46.0,59.4,51.5,43.9,96,65,32,30.25,30.15,1,0,6,0.00
2013-6-21,83.8,71.0,55.3,65.8,58.5,52.4,93,67,46,30.25,30.18,1,0,5,0.00
2013-6-22,85.9,72.8,57.2,65.4,59.5,53.9,92,65,41,30.23,30.07,1,0,5,0.00
2013-6-23,91.4,84.2,73.5,70.8,67.2,60.1,83,58,39,30.12,30.00,1,0,10,0.00
2013-6-24,94.9,78.6,67.3,74.0,69.1,64.2,94,75,44,30.02,29.89,6,0,10,0.07
2013-6-25,90.3,75.8,64.2,75.3,69.4,63.0,98,83,47,29.97,29.76,3,0,10,0.59
2013-6-26,83.0,74.8,69.1,71.2,69.3,66.7,97,84,60,29.80,29.73,1,0,10,0.05
2013-6-27,86.5,76.7,66.3,73.7,69.6,65.7,98,80,55,29.79,29.50,2,0,9,0.40
2013-6-28,84.1,76.2,68.8,72.3,68.9,65.7,96,80,56,29.51,29.42,2,0,7,0.40
2013-6-29,86.1,74.6,64.3,70.5,66.2,62.4,98,78,50,29.67,29.46,1,0,6,0.01
2013-6-30,84.9,72.2,65.2,73.2,68.3,63.7,97,88,59,29.89,29.66,2,0,6,0.67
2013-7-1,76.3,73.1,68.6,73.8,71.4,67.7,98,95,90,30.01,29.89,1,0,4,0.85
2013-7-2,85.3,77.1,71.8,74.1,72.1,70.3,97,85,66,30.13,30.01,2,0,5,0.10
2013-7-3,87.8,78.1,71.3,74.8,71.6,68.8,94,81,59,30.20,30.11,2,0,5,0.00
2013-7-4,89.9,83.0,72.7,75.3,72.7,70.0,97,73,54,30.21,30.10,1,0,5,0.00
2013-7-5,92.7,81.7,71.8,75.3,71.8,69.5,95,74,50,30.17,30.03,1,0,6,0.00
2013-7-6,93.6,82.0,73.7,74.8,72.2,70.1,94,75,48,30.09,29.98,1,0,4,0.00
2013-7-7,94.3,82.2,71.8,77.3,72.9,66.0,96,75,48,30.02,29.88,1,0,6,0.00
2013-7-8,89.7,78.4,68.6,72.7,67.9,64.0,93,72,52,30.01,29.92,5,0,8,0.04
2013-7-9,89.0,75.6,65.3,74.4,69.2,64.1,98,82,56,30.05,29.96,1,0,4,0.00
2013-7-10,85.9,77.5,70.8,77.5,72.3,68.7,94,85,67,29.98,29.75,2,0,6,0.13
2013-7-11,85.5,76.7,66.8,72.3,68.4,63.8,93,77,56,29.92,29.80,2,0,6,0.01
2013-7-12,80.7,72.4,63.5,67.0,62.4,58.8,92,72,56,30.12,29.92,3,1,7,0.00
2013-7-13,80.3,71.7,65.8,71.7,66.8,59.0,93,85,68,30.27,30.12,1,0,3,0.01
2013-7-14,91.6,79.9,70.9,77.3,72.6,69.0,97,80,52,30.30,30.19,1,0,3,0.01
2013-7-15,91.4,81.6,72.8,75.5,71.8,67.8,93,75,47,30.21,30.11,3,0,6,0.00
2013-7-16,91.0,79.3,65.6,72.6,67.9,60.8,97,72,38,30.20,30.11,5,1,12,0.00
2013-7-17,95.9,81.8,67.9,75.3,69.8,65.0,97,71,37,30.19,30.01,2,0,3,0.00
2013-7-18,97.8,87.1,72.5,78.4,73.4,68.0,97,67,39,30.03,29.91,2,0,5,0.07
2013-7-19,96.1,84.5,72.8,77.4,73.9,71.2,96,73,49,29.93,29.73,2,0,5,0.00
2013-7-20,93.2,82.2,72.0,74.9,70.7,66.6,86,70,46,29.82,29.68,2,0,9,0.00
2013-7-21,88.2,76.5,65.2,67.8,63.8,56.2,95,68,35,29.94,29.82,2,0,6,0.01
2013-7-22,85.5,74.4,63.7,72.7,67.9,61.8,96,81,56,29.95,29.78,2,0,5,0.04
2013-7-23,90.1,76.2,70.9,76.4,72.1,68.4,98,88,49,29.78,29.53,6,0,9,1.25
2013-7-24,77.7,71.3,62.3,73.4,64.1,51.3,98,80,57,29.93,29.59,5,1,14,0.01
2013-7-25,70.4,64.2,56.9,60.9,55.4,48.3,88,73,66,30.07,30.00,4,1,10,0.00
2013-7-26,81.2,68.8,61.3,64.2,59.6,55.3,90,74,49,30.03,29.96,3,0,10,0.00
2013-7-27,85.1,71.3,56.6,66.2,60.7,54.9,98,72,43,30.03,29.93,1,0,10,0.00
2013-7-28,76.7,69.1,64.0,70.8,65.7,61.2,96,89,72,29.97,29.90,1,0,10,0.19
2013-7-29,85.7,73.0,63.2,69.4,62.8,53.6,98,74,40,30.08,29.93,2,0,10,0.01
2013-7-30,80.3,67.6,54.8,61.9,56.9,52.8,97,71,40,30.15,30.07,3,0,10,0.00
2013-7-31,83.0,69.4,55.3,64.1,58.7,53.6,97,72,38,30.15,30.00,1,0,10,0.00
2013-8-1,76.3,66.4,61.6,66.1,63.3,59.3,96,90,67,30.02,29.82,1,0,10,0.23
2013-8-2,82.4,72.0,64.2,67.7,63.5,59.1,98,77,47,29.87,29.77,1,0,10,0.05
2013-8-3,81.1,69.5,62.0,67.7,62.4,57.8,91,79,57,29.87,29.79,1,0,10,0.00
2013-8-4,80.1,66.6,54.4,62.9,57.1,49.3,98,74,41,29.93,29.83,5,0,10,0.05
2013-8-5,77.0,67.2,49.5,56.5,49.1,43.6,98,56,31,30.04,29.96,4,1,10,0.01
2013-8-6,82.4,65.8,48.0,60.0,53.3,46.1,98,68,34,30.10,30.03,1,0,4,0.00
2013-8-7,76.5,68.0,58.9,65.9,60.7,55.4,95,78,61,30.13,30.02,2,0,5,0.00
2013-8-8,83.0,74.7,69.4,71.4,68.6,65.9,93,82,63,30.03,29.96,2,0,7,0.02
2013-8-9,81.8,74.6,70.6,78.0,72.9,69.4,99,94,79,29.90,29.75,1,0,6,4.78
2013-8-10,85.1,71.5,58.7,69.9,61.7,52.7,99,75,35,30.04,29.83,3,0,6,0.00
2013-8-11,81.1,65.9,50.8,62.4,55.8,48.6,98,73,39,30.12,29.99,1,0,5,0.01
2013-8-12,83.4,70.0,57.8,65.7,59.8,52.7,98,74,39,30.02,29.89,1,0,5,0.00
2013-8-13,76.0,69.2,64.2,70.5,66.5,61.2,97,92,75,29.90,29.65,1,0,5,0.52
2013-8-14,74.2,66.3,53.1,56.3,51.9,48.8,96,62,44,29.99,29.79,5,1,14,0.00
2013-8-15,78.6,66.4,49.2,58.4,54.2,47.5,97,68,38,30.12,30.04,1,0,4,0.00
2013-8-16,81.6,64.8,51.1,61.1,54.3,49.5,98,73,34,30.18,30.10,1,0,3,0.00
2013-8-17,83.4,66.2,52.2,63.6,56.4,49.9,98,75,35,30.27,30.18,2,0,6,0.00
2013-8-18,76.5,65.9,57.2,67.4,61.2,55.8,97,86,65,30.26,30.10,1,0,3,0.00
2013-8-19,79.2,69.5,59.6,67.1,62.9,58.5,98,81,58,30.10,29.99,1,0,4,0.00
2013-8-20,86.1,71.2,57.5,68.3,61.9,55.7,98,76,37,30.11,30.02,2,0,6,0.00
2013-8-21,88.8,72.1,57.0,68.8,62.5,55.6,98,75,40,30.17,30.03,1,0,6,0.00
2013-8-22,83.4,75.7,63.9,72.2,68.9,62.7,97,81,60,30.00,29.83,1,0,3,0.05
2013-8-23,78.6,69.5,56.3,67.2,58.8,51.2,95,71,43,30.12,29.85,6,1,12,0.00
2013-8-24,77.7,63.6,51.3,58.1,52.3,45.8,94,70,40,30.33,30.13,4,0,7,0.00
2013-8-25,84.1,65.2,48.5,61.3,54.4,46.9,98,72,37,30.39,30.18,1,0,4,0.00
2013-8-26,77.6,68.7,62.6,69.4,62.9,56.7,95,82,71,30.20,29.88,0,0,2,0.42
2013-8-27,81.2,72.7,67.8,69.7,67.5,65.4,98,85,62,29.89,29.79,4,1,12,0.42
2013-8-28,87.8,72.6,62.9,72.9,66.6,61.7,98,83,51,29.88,29.81,1,0,5,0.01
2013-8-29,79.4,72.4,65.2,68.4,65.9,64.1,98,81,62,30.01,29.95,2,0,6,0.00
2013-8-30,84.9,73.7,66.3,70.7,66.8,63.6,94,80,55,30.00,29.81,1,0,4,0.00
2013-8-31,82.8,75.2,70.3,74.1,70.9,68.3,96,87,73,29.82,29.75,1,0,4,0.07
2013-9-1,82.0,74.9,70.1,75.9,71.8,68.7,98,90,77,29.82,29.77,1,0,6,0.13
2013-9-2,83.2,72.3,64.2,73.8,69.5,63.0,98,91,69,29.79,29.67,5,0,9,0.92
2013-9-3,75.3,66.7,58.4,68.0,62.9,55.7,99,89,57,29.86,29.70,1,0,5,0.02
2013-9-4,81.2,66.3,53.5,63.8,56.9,52.4,99,75,40,29.96,29.85,1,0,4,0.01
2013-9-5,71.1,65.0,53.1,62.3,49.2,40.7,93,59,35,30.15,29.91,5,1,11,0.00
2013-9-6,68.6,54.6,41.6,51.2,43.4,36.4,96,70,33,30.26,30.11,2,0,10,0.00
2013-9-7,77.6,60.4,44.6,60.8,51.3,43.0,98,75,39,30.11,29.86,1,0,3,0.00
2013-9-8,76.3,65.0,52.5,62.9,54.2,43.5,96,70,39,30.10,29.79,5,1,12,0.02
2013-9-9,71.8,57.9,41.5,55.4,48.0,39.6,97,72,44,30.24,30.08,1,0,3,0.00
2013-9-10,80.1,70.6,62.9,72.7,66.1,55.4,95,86,75,30.15,30.01,1,0,4,0.03
2013-9-11,94.9,81.7,70.4,78.0,73.4,66.6,98,78,53,30.07,29.93,3,0,7,0.00
2013-9-12,83.0,74.7,67.1,75.1,70.4,65.9,97,87,73,29.90,29.65,2,0,5,0.35
2013-9-13,74.9,65.2,54.2,67.2,60.5,50.1,98,86,58,29.83,29.60,4,1,12,0.09
2013-9-14,64.5,55.4,46.5,51.2,47.8,43.3,95,77,56,30.10,29.83,3,0,10,0.00
2013-9-15,69.1,54.1,39.9,54.3,46.1,38.3,98,77,40,30.21,30.06,1,0,3,0.01
2013-9-16,68.8,58.4,49.4,57.1,51.9,39.5,95,80,56,30.27,30.01,4,1,10,0.00
2013-9-17,61.5,50.2,37.9,45.8,40.3,35.5,93,71,46,30.45,30.27,4,1,11,0.00
2013-9-18,72.0,52.9,36.9,52.2,43.5,35.1,98,75,36,30.34,30.16,1,0,4,0.00
2013-9-19,77.4,57.5,42.6,55.6,47.6,41.3,98,74,31,30.17,30.05,1,0,3,0.00
2013-9-20,81.1,66.7,44.2,60.5,54.8,42.6,99,68,40,30.08,29.96,1,0,4,0.00
2013-9-21,73.9,64.6,54.8,66.1,59.7,53.7,100,85,68,29.98,29.61,4,0,7,0.35
2013-9-22,67.9,60.6,52.0,66.1,51.6,39.6,97,74,48,29.91,29.61,4,1,10,0.25
2013-9-23,62.0,52.0,41.8,43.8,40.7,37.7,92,67,44,30.05,29.90,5,1,10,0.00
2013-9-24,68.8,51.7,35.8,49.3,42.2,33.4,96,73,39,30.05,29.86,3,0,7,0.00
2013-9-25,70.1,53.5,37.5,55.0,45.2,35.8,98,77,41,29.97,29.87,2,0,7,0.00
2013-9-26,68.3,58.3,48.6,52.6,49.2,45.5,94,73,54,30.11,30.00,4,1,9,0.00
2013-9-27,65.2,54.7,43.1,53.9,48.5,41.4,98,81,61,30.27,30.11,2,0,5,0.00
2013-9-28,73.3,56.4,41.8,57.2,49.4,39.9,98,80,50,30.35,30.23,2,0,6,0.00
2013-9-29,72.8,56.2,42.6,57.8,49.6,41.0,98,81,47,30.23,30.06,3,0,8,0.01
2013-9-30,74.9,56.8,43.5,56.1,49.0,41.7,98,78,42,30.09,29.95,2,0,5,0.00
2013-10-1,78.3,58.6,42.1,61.4,51.8,40.5,99,81,46,30.02,29.87,1,0,4,0.00
2013-10-2,79.9,63.5,49.2,63.5,55.7,47.5,99,79,50,29.97,29.88,2,0,4,0.01
2013-10-3,76.8,64.1,46.8,60.2,54.4,45.4,98,74,39,30.12,30.01,0,0,4,0.00
2013-10-4,77.9,64.9,53.9,66.3,59.5,52.5,98,84,64,30.05,29.95,2,0,4,0.00
2013-10-5,72.0,64.0,59.3,64.0,60.8,58.2,98,90,73,30.09,30.01,1,0,3,0.03
2013-10-6,62.9,60.7,58.9,62.3,59.2,57.9,98,95,91,30.10,30.02,2,0,5,0.59
2013-10-7,73.7,65.0,53.5,69.2,62.9,51.8,97,93,78,30.02,29.69,4,0,9,0.63
2013-10-8,64.2,52.4,42.2,51.6,43.6,39.9,99,76,43,30.35,29.95,6,1,11,0.00
2013-10-9,64.3,50.7,38.0,47.5,41.4,36.4,98,74,36,30.44,30.32,3,0,7,0.00
2013-10-10,56.9,52.5,41.9,48.0,45.0,40.3,96,76,65,30.28,30.12,3,0,7,0.00
2013-10-11,70.1,59.3,50.1,59.2,49.9,43.9,82,71,60,30.12,30.03,4,0,11,0.00
2013-10-12,73.2,57.0,41.6,54.3,48.2,39.7,97,75,45,30.31,30.11,4,1,10,0.00
2013-10-13,67.8,55.1,43.3,50.5,47.0,41.3,97,76,50,30.40,30.30,2,0,7,0.00
2013-10-14,67.8,53.3,40.5,51.2,46.0,38.9,97,79,49,30.36,30.22,2,0,4,0.00
2013-10-15,71.1,57.5,46.0,57.2,48.9,38.7,97,75,52,30.25,30.10,2,0,4,0.00
2013-10-16,63.4,54.5,45.5,55.6,49.0,40.6,95,82,66,30.11,29.92,0,0,3,0.00
2013-10-17,75.3,67.9,59.9,60.9,57.6,51.2,95,72,46,29.87,29.63,2,0,5,0.00
2013-10-18,68.9,59.1,44.8,61.6,46.3,38.5,92,65,36,29.96,29.60,2,0,10,0.02
2013-10-19,66.0,51.9,38.9,50.7,42.2,36.8,96,73,34,29.97,29.71,2,0,7,0.09
2013-10-20,63.5,50.7,39.5,49.9,40.0,32.7,95,70,34,30.04,29.72,3,0,12,0.01
2013-10-21,67.1,50.7,36.8,43.2,38.2,34.4,96,67,35,30.13,29.95,2,0,4,0.00
2013-10-22,60.4,51.1,38.5,49.9,44.0,34.2,95,77,60,29.95,29.72,3,0,6,0.00
2013-10-23,54.1,41.4,31.2,42.3,33.8,29.1,96,77,40,29.81,29.61,3,0,10,0.00
2013-10-24,54.7,44.1,32.4,36.2,29.5,25.4,94,59,35,29.96,29.82,3,0,10,0.00
2013-10-25,50.5,40.9,32.8,32.9,29.1,26.8,87,64,40,30.19,29.95,6,0,14,0.00
2013-10-26,54.7,44.1,32.1,34.6,30.0,25.1,92,61,33,30.18,29.86,3,0,13,0.00
2013-10-27,56.9,47.4,36.5,34.3,30.5,26.4,77,53,33,30.09,29.82,4,0,12,0.00
2013-10-28,62.0,44.5,30.3,36.6,31.4,26.9,93,64,32,30.33,30.09,4,0,7,0.00
2013-10-29,49.6,40.3,29.8,28.2,26.0,23.8,83,58,38,30.44,30.33,2,0,6,0.00
2013-10-30,53.6,41.2,29.5,44.0,35.4,25.0,91,80,62,30.34,30.16,1,0,3,0.00
2013-10-31,59.8,48.6,35.3,58.9,47.2,33.5,98,95,91,30.22,29.82,2,0,5,0.20
2013-11-1,69.1,61.6,47.4,61.3,53.2,44.6,91,75,54,29.67,29.46,7,1,21,0.25
2013-11-2,67.6,50.1,41.3,50.2,43.4,38.8,97,80,39,29.77,29.60,2,0,21,0.00
2013-11-3,44.8,38.6,30.3,42.6,28.3,15.1,93,67,48,30.47,29.77,8,2,21,0.01
2013-11-4,43.1,32.1,24.2,22.8,17.6,14.7,80,57,33,30.67,30.47,5,1,21,0.00
2013-11-5,55.0,40.0,26.3,37.8,30.0,21.8,87,69,48,30.67,30.50,3,0,21,0.00
2013-11-6,58.3,53.6,41.5,47.4,43.9,39.3,94,70,58,30.41,30.07,3,1,21,0.00
2013-11-7,59.3,49.6,33.4,56.4,44.3,27.3,92,82,62,29.90,29.72,6,1,10,0.11
2013-11-8,47.4,37.9,29.8,32.2,27.7,25.0,88,68,43,30.16,29.89,6,1,20,0.01
2013-11-9,47.1,41.0,34.6,30.3,27.2,24.8,78,58,42,30.25,29.96,1,0,6,0.01
2013-11-10,57.3,46.2,40.9,38.4,32.5,26.3,72,59,41,30.00,29.78,5,0,11,0.02
2013-11-11,51.7,45.3,35.5,31.7,28.3,25.9,72,52,39,30.17,29.92,4,0,10,0.00
2013-11-12,48.0,33.1,20.3,36.7,24.6,15.1,91,72,52,30.27,29.92,7,1,12,0.10
2013-11-13,36.2,27.7,19.4,17.3,13.9,8.9,82,58,32,30.32,30.26,3,0,12,0.00
2013-11-14,53.1,41.9,29.8,21.9,16.9,11.7,60,39,19,30.19,30.09,2,0,12,0.00
2013-11-15,61.0,40.5,26.7,25.7,20.5,16.1,74,49,19,30.22,30.12,2,0,10,0.00
2013-11-16,61.3,45.5,34.0,39.8,33.7,23.7,93,66,31,30.32,30.20,2,0,10,0.02
2013-11-17,60.1,53.3,41.3,57.6,51.3,38.9,96,93,86,30.26,29.74,4,0,10,0.00
2013-11-18,64.3,56.8,46.0,58.7,41.1,23.7,93,59,31,29.74,29.52,5,1,11,0.18
2013-11-19,46.1,39.5,30.1,28.5,22.8,19.0,63,51,42,30.37,29.75,10,3,17,0.00
2013-11-20,38.8,30.3,21.1,19.0,15.1,11.9,73,54,34,30.62,30.36,8,2,13,0.00
2013-11-21,48.3,38.0,16.2,34.9,26.7,12.5,90,65,44,30.65,30.37,1,0,10,0.00
2013-11-22,52.2,47.0,41.8,49.3,43.4,34.8,97,87,76,30.37,29.87,0,0,3,0.14
2013-11-23,50.8,39.0,26.1,46.5,22.6,6.4,88,53,35,30.03,29.87,5,1,17,0.00
2013-11-24,27.8,23.4,20.8,10.2,2.4,-6.7,59,41,22,30.33,29.97,10,3,22,0.00
2013-11-25,32.5,24.2,11.1,13.9,9.6,3.8,82,55,39,30.46,30.29,3,0,10,0.00
2013-11-26,41.2,32.5,30.4,40.1,21.0,10.8,96,65,43,30.33,29.83,1,0,10,0.45
2013-11-27,55.1,42.6,32.8,54.3,40.5,20.4,97,93,60,29.83,29.34,4,1,9,1.19
2013-11-28,32.7,27.7,20.0,20.3,12.6,8.1,77,54,39,30.44,29.67,5,1,15,0.00
2013-11-29,33.7,26.1,17.5,18.8,15.7,11.5,83,65,49,30.74,30.53,3,0,7,0.00
2013-11-30,32.4,24.3,12.1,21.6,11.8,6.8,86,61,34,30.78,30.39,2,0,5,0.00
2013-12-1,43.3,35.0,27.5,30.5,26.5,21.6,85,71,57,30.39,30.01,1,0,3,0.00
2013-12-2,41.8,33.5,27.9,34.8,29.6,24.5,92,86,73,30.01,29.89,0,0,2,0.01
2013-12-3,38.5,29.8,24.5,37.2,27.9,22.5,96,92,88,30.02,29.89,1,0,3,0.01
2013-12-4,45.8,33.8,23.8,36.1,28.9,21.8,96,83,60,30.14,30.01,1,0,4,0.00
2013-12-5,54.1,51.7,45.8,53.0,50.5,44.2,97,95,93,30.08,29.92,3,0,4,0.15
2013-12-6,53.8,42.7,32.7,53.0,39.6,30.0,98,89,71,30.16,29.85,7,1,12,0.51
2013-12-7,38.6,31.9,23.8,32.6,25.7,16.5,94,79,51,30.51,30.11,4,0,6,0.07
2013-12-8,29.7,25.1,18.0,22.7,18.0,13.7,86,74,63,30.61,30.42,1,0,3,0.00
2013-12-9,32.9,30.4,26.4,31.9,28.6,22.5,96,93,82,30.42,29.95,1,0,4,0.01
2013-12-10,32.9,29.0,19.9,31.9,27.2,16.7,96,93,86,30.08,29.84,0,0,3,0.00
2013-12-11,30.6,23.5,18.8,20.4,16.8,13.7,87,76,64,30.28,30.08,1,0,4,0.00
2013-12-12,25.3,18.3,11.9,12.7,7.0,3.0,81,62,44,30.35,30.12,3,0,9,0.00
2013-12-13,32.4,23.8,16.4,16.9,10.9,5.3,69,58,48,30.36,30.07,3,0,9,0.00
2013-12-14,21.0,16.9,14.6,13.8,11.1,7.9,87,78,58,30.53,29.93,3,1,5,0.00
2013-12-15,33.2,26.0,17.0,30.5,21.9,13.8,93,85,64,29.93,29.56,4,1,6,0.00
2013-12-16,27.8,21.7,7.2,21.1,8.4,0.7,80,57,40,30.22,29.78,3,0,14,0.00
2013-12-17,18.4,11.8,0.9,15.4,7.7,-4.4,88,83,74,30.23,29.96,1,0,3,0.00
2013-12-18,33.7,21.9,6.7,23.9,16.1,2.6,88,79,64,30.13,29.95,1,0,6,0.05
2013-12-19,43.9,32.0,22.9,26.3,21.6,16.4,81,66,43,30.15,29.99,2,0,6,0.18
2013-12-20,53.5,42.4,29.8,31.3,30.0,26.1,87,63,40,30.06,29.93,2,0,4,0.26
2013-12-21,57.6,43.9,35.0,42.9,36.6,29.7,95,76,55,29.97,29.85,4,0,6,0.02
2013-12-22,66.3,58.7,42.2,61.6,54.5,40.6,99,87,70,29.93,29.71,9,1,17,0.06
2013-12-23,58.4,46.6,35.6,54.4,44.3,29.7,96,92,79,30.15,29.90,4,1,11,0.50
2013-12-24,35.6,29.6,19.7,29.7,21.6,11.2,90,73,56,30.32,30.09,6,1,17,0.00
2013-12-25,23.3,17.2,7.6,10.7,5.9,2.1,81,62,43,30.54,30.32,5,0,11,0.00
2013-12-26,31.5,25.7,21.6,23.8,18.3,10.4,87,74,60,30.43,30.15,1,0,11,0.00
2013-12-27,35.9,30.0,20.8,21.9,20.1,16.2,83,67,52,30.33,30.23,1,0,4,0.01
2013-12-28,47.9,33.0,22.2,27.6,23.6,18.9,90,70,43,30.25,30.04,1,0,4,0.00
2013-12-29,42.1,35.8,30.3,37.6,31.6,25.5,96,85,60,30.04,29.48,6,1,11,0.76
2013-12-30,38.9,30.0,15.1,37.2,22.2,5.8,96,74,46,30.22,29.65,5,1,15,0.00
2013-12-31,28.4,19.5,11.4,20.8,10.6,4.3,83,69,52,30.25,30.03,1,0,6,0.00
2014-1-1,30.4,23.2,16.9,18.5,11.3,5.6,81,61,45,30.40,30.24,3,0,7,0.00
2014-1-2,22.2,12.4,3.2,17.5,8.0,-1.8,86,82,79,30.29,29.80,5,2,14,0.00